Time;durP1;ratioP1;P1;durP2;ratioP2;P2;SDS_P1;SDS_P2;PMS_P1;PMS_P2;Temp;Humidity;BMP_temperature;BMP_pressure;BME280_temperature;BME280_humidity;BME280_pressure;Samples;Min_cycle;Max_cycle;Signal;HPM_P1;HPM_P2
2024/01/26 00:01:08;;;;;;;11.05;5.70;;;;;;;8.65;100.00;102271.56;4975283;28;20085;-91
2024/01/26 00:03:45;;;;;;;11.50;6.10;;;;;;;8.55;100.00;102259.31;4974257;28;20035;-90
2024/01/26 00:06:10;;;;;;;13.00;6.90;;;;;;;8.55;100.00;102254.16;4976684;28;20037;-91
2024/01/26 00:08:45;;;;;;;12.93;6.53;;;;;;;8.62;100.00;102258.56;4976560;28;20406;-90
2024/01/26 00:11:35;;;;;;;10.80;5.53;;;;;;;8.67;100.00;102264.66;4956749;28;20142;-91
2024/01/26 00:14:00;;;;;;;9.40;5.30;;;;;;;8.60;100.00;102245.59;4957498;29;20053;-92
2024/01/26 00:16:43;;;;;;;16.87;8.90;;;;;;;8.64;100.00;102246.53;4956988;28;20031;-90
2024/01/26 00:19:08;;;;;;;15.40;7.93;;;;;;;8.62;100.00;102241.31;4957098;29;20050;-90
2024/01/26 00:21:45;;;;;;;12.73;6.73;;;;;;;8.58;100.00;102231.78;4957539;28;20165;-90
2024/01/26 00:24:29;;;;;;;10.75;5.90;;;;;;;8.63;100.00;102226.66;4956508;29;20031;-90
2024/01/26 00:26:54;;;;;;;10.13;5.38;;;;;;;8.63;100.00;102227.50;4956815;29;20034;-90
2024/01/26 00:29:36;;;;;;;9.80;5.60;;;;;;;8.68;100.00;102237.94;4956360;29;20023;-89
2024/01/26 00:32:01;;;;;;;9.52;5.43;;;;;;;8.63;100.00;102231.84;4954575;29;20110;-91
2024/01/26 00:34:39;;;;;;;10.10;5.00;;;;;;;8.74;100.00;102244.91;4956342;29;20043;-91
2024/01/26 00:37:04;;;;;;;8.05;4.75;;;;;;;8.69;100.00;102242.25;4956452;29;20034;-90
2024/01/26 00:39:38;;;;;;;8.13;4.67;;;;;;;8.60;100.00;102214.56;4961865;28;20445;-91
2024/01/26 00:42:04;;;;;;;7.85;4.72;;;;;;;8.73;100.00;102238.00;4972506;28;20054;-91
2024/01/26 00:44:40;;;;;;;7.67;4.40;;;;;;;8.73;100.00;102245.75;4976173;28;20074;-91
2024/01/26 00:47:05;;;;;;;6.38;4.35;;;;;;;8.69;100.00;102231.06;4975944;28;20106;-91
2024/01/26 00:49:41;;;;;;;6.87;4.30;;;;;;;8.68;100.00;102235.34;4975513;28;20454;-90
2024/01/26 00:52:06;;;;;;;8.88;4.75;;;;;;;8.73;100.00;102238.88;4975396;28;20034;-91
2024/01/26 00:54:47;;;;;;;7.20;4.43;;;;;;;8.63;100.00;102216.31;4975551;28;20088;-90
2024/01/26 00:57:33;;;;;;;7.47;4.35;;;;;;;8.71;100.00;102219.00;4975630;28;20058;-91
2024/01/26 01:00:17;;;;;;;6.78;4.40;;;;;;;8.68;100.00;102218.97;4975923;28;20019;-91
2024/01/26 01:03:01;;;;;;;7.78;4.50;;;;;;;8.63;100.00;102211.13;4975784;28;20438;-91
2024/01/26 01:05:26;;;;;;;8.40;4.80;;;;;;;8.63;100.00;102211.13;4975069;28;20468;-90
2024/01/26 01:08:09;;;;;;;7.67;4.60;;;;;;;8.67;100.00;102209.44;4966919;28;20031;-91
2024/01/26 01:10:53;;;;;;;7.53;4.70;;;;;;;8.65;100.00;102204.28;4956684;28;20019;-91
2024/01/26 01:13:19;;;;;;;9.38;5.40;;;;;;;8.75;100.00;102221.66;4955888;29;20023;-90
2024/01/26 01:16:02;;;;;;;8.30;4.90;;;;;;;8.72;100.00;102223.34;4955918;29;20031;-91
2024/01/26 01:18:27;;;;;;;8.57;4.72;;;;;;;8.74;100.00;102227.69;4956258;29;20507;-91
2024/01/26 01:21:08;;;;;;;7.73;4.57;;;;;;;8.70;100.00;102218.13;4955793;29;20032;-90
2024/01/26 01:23:33;;;;;;;7.25;4.30;;;;;;;8.75;100.00;102220.78;4955787;29;20034;-91
2024/01/26 01:26:10;;;;;;;6.10;4.00;;;;;;;8.67;100.00;102196.50;4956059;28;20035;-91
2024/01/26 01:28:35;;;;;;;;;;;;;;;8.75;100.00;102203.53;4956125;29;20060;-91
2024/01/26 01:31:19;;;;;;;7.20;3.83;;;;;;;8.74;100.00;102196.63;4955973;29;19924;-91
2024/01/26 01:34:08;;;;;;;5.03;3.15;;;;;;;8.63;100.00;102178.34;4955855;29;20081;-91
2024/01/26 01:36:33;;;;;;;5.63;3.53;;;;;;;8.60;100.00;102174.84;4956000;29;20020;-90
2024/01/26 01:39:09;;;;;;;5.10;3.20;;;;;;;8.68;100.00;102185.31;4955748;29;20078;-91
2024/01/26 01:41:35;;;;;;;5.28;3.25;;;;;;;8.70;100.00;102193.97;4955028;29;20031;-91
2024/01/26 01:44:25;;;;;;;3.87;2.80;;;;;;;8.74;100.00;102195.75;4955504;28;20069;-91
2024/01/26 01:47:01;;;;;;;4.88;3.30;;;;;;;8.70;100.00;102188.81;4955454;29;20039;-91
2024/01/26 01:49:42;;;;;;;5.75;3.60;;;;;;;8.71;100.00;102182.78;4955612;28;20479;-91
2024/01/26 01:52:29;;;;;;;4.07;3.17;;;;;;;8.76;100.00;102186.28;4955829;29;20030;-92
2024/01/26 01:55:14;;;;;;;5.40;3.40;;;;;;;8.63;100.00;102154.19;4955687;29;20391;-91
2024/01/26 01:58:28;;;;;;;3.97;2.97;;;;;;;8.65;100.00;102158.53;4899786;29;20048;-92
2024/01/26 02:01:11;;;;;;;5.13;3.25;;;;;;;8.71;100.00;102162.94;4913559;29;20035;-91
2024/01/26 02:07:17;;;;;;;4.50;3.03;;;;;;;8.78;100.00;102175.09;4915073;29;20044;-90
2024/01/26 02:10:07;;;;;;;4.72;3.10;;;;;;;8.67;100.00;102149.94;4951937;29;20279;-91
2024/01/26 02:12:33;;;;;;;4.82;3.30;;;;;;;8.67;100.00;102144.75;4955479;29;20050;-91
2024/01/26 02:15:08;;;;;;;6.05;3.80;;;;;;;8.79;100.00;102163.91;4955427;29;20107;-91
2024/01/26 02:17:55;;;;;;;4.60;3.33;;;;;;;8.72;100.00;102143.97;4955504;28;20051;-91
2024/01/26 02:20:42;;;;;;;5.22;3.50;;;;;;;8.81;100.00;102157.03;4959112;29;20035;-91
2024/01/26 02:23:07;;;;;;;5.55;3.55;;;;;;;8.77;100.00;102144.91;4959170;29;20027;-91
2024/01/26 02:25:49;;;;;;;6.97;3.70;;;;;;;8.77;100.00;102131.06;4959413;29;20094;-91
2024/01/26 02:28:15;;;;;;;4.90;3.40;;;;;;;8.72;100.00;102128.44;4959468;29;20087;-91
2024/01/26 02:30:51;;;;;;;6.57;3.70;;;;;;;8.72;100.00;102120.66;4959016;29;20065;-91
2024/01/26 02:33:16;;;;;;;5.07;3.20;;;;;;;8.83;100.00;102135.47;4958914;29;20490;-92
2024/01/26 02:36:08;;;;;;;3.90;2.90;;;;;;;8.85;100.00;102137.22;4958998;29;20035;-91
2024/01/26 02:38:42;;;;;;;3.88;2.60;;;;;;;8.81;100.00;102127.69;4959288;29;20030;-91
2024/01/26 02:41:08;;;;;;;4.63;3.20;;;;;;;8.76;100.00;102103.44;4959997;28;20027;-91
2024/01/26 02:43:36;;;;;;;5.10;3.10;;;;;;;8.78;100.00;102106.94;4977994;28;20039;-91
2024/01/26 02:46:26;;;;;;;4.80;2.80;;;;;;;8.86;100.00;102118.25;4978127;28;20022;-91
2024/01/26 02:48:51;;;;;;;4.40;2.75;;;;;;;8.80;100.00;102115.59;4978175;28;20034;-90
2024/01/26 02:51:31;;;;;;;4.83;2.70;;;;;;;8.77;100.00;102110.38;4980208;28;20027;-90
2024/01/26 02:54:05;;;;;;;3.55;2.70;;;;;;;8.78;100.00;102102.59;4977879;28;20037;-91
2024/01/26 02:56:51;;;;;;;3.15;2.38;;;;;;;8.77;100.00;102092.25;4978222;28;20045;-91
2024/01/26 02:59:40;;;;;;;3.00;2.63;;;;;;;8.82;100.00;102100.97;4978448;28;20023;-91
2024/01/26 03:02:27;;;;;;;4.25;2.70;;;;;;;8.88;100.00;102097.56;4978214;28;20027;-91
2024/01/26 03:04:52;;;;;;;3.47;2.60;;;;;;;8.90;100.00;102095.84;4978242;28;20027;-91
2024/01/26 03:07:34;;;;;;;3.50;2.70;;;;;;;8.90;100.00;102094.16;4978045;28;20030;-91
2024/01/26 03:10:09;;;;;;;3.08;2.70;;;;;;;8.79;100.00;102065.53;4978924;28;20466;-91
2024/01/26 03:12:55;;;;;;;2.67;2.47;;;;;;;8.91;100.00;102097.59;4977663;28;20030;-91
2024/01/26 03:15:42;;;;;;;3.10;2.60;;;;;;;8.90;100.00;102093.25;4977742;28;20035;-91
2024/01/26 03:18:08;;;;;;;2.47;2.28;;;;;;;8.91;100.00;102087.22;4977480;28;20059;-91
2024/01/26 03:20:35;;;;;;;3.70;2.50;;;;;;;8.86;100.00;102066.47;4977720;28;20136;-91
2024/01/26 03:23:01;;;;;;;3.58;2.50;;;;;;;8.94;100.00;102063.97;4978895;28;20525;-91
2024/01/26 03:25:38;;;;;;;2.80;2.40;;;;;;;8.90;100.00;102036.28;4977937;28;20154;-91
2024/01/26 03:28:04;;;;;;;3.28;2.45;;;;;;;8.93;100.00;102050.16;4978401;28;20436;-91
2024/01/26 03:30:33;;;;;;;2.93;2.47;;;;;;;8.95;100.00;102052.75;4978095;28;20061;-91
2024/01/26 03:33:13;;;;;;;3.00;2.50;;;;;;;8.91;100.00;102035.44;4943826;28;20117;-91
2024/01/26 03:35:38;;;;;;;2.80;2.50;;;;;;;8.94;100.00;102044.16;4978235;28;20023;-90
2024/01/26 03:38:19;;;;;;;3.50;2.30;;;;;;;8.87;100.00;102024.19;4978578;28;20111;-91
2024/01/26 03:41:03;;;;;;;3.17;2.60;;;;;;;8.98;100.00;102050.22;4979603;28;20037;-91
2024/01/26 03:43:51;;;;;;;3.72;2.50;;;;;;;8.95;100.00;102035.50;4978526;28;20039;-91
2024/01/26 03:46:40;;;;;;;3.10;2.60;;;;;;;8.95;100.00;102037.22;4979383;28;20029;-91
2024/01/26 03:49:20;;;;;;;3.72;2.80;;;;;;;8.90;100.00;102018.19;4980797;28;20030;-92
2024/01/26 03:52:04;;;;;;;3.25;2.55;;;;;;;8.96;100.00;102018.25;4981666;28;20147;-92
2024/01/26 03:54:30;;;;;;;5.40;3.20;;;;;;;8.98;100.00;102016.56;4983754;28;20026;-91
2024/01/26 03:57:10;;;;;;;4.67;3.00;;;;;;;8.95;100.00;102012.19;4987166;28;20031;-91
2024/01/26 03:59:36;;;;;;;6.03;2.97;;;;;;;9.02;100.00;102007.09;4990869;28;20014;-90
2024/01/26 04:02:57;;;;;;;4.93;3.20;;;;;;;9.09;100.00;102014.94;4987207;28;20035;-91
2024/01/26 04:08:18;;;;;;;5.93;3.80;;;;;;;9.14;100.00;101999.44;4977183;28;20134;-91
2024/01/26 04:10:43;;;;;;;4.97;3.63;;;;;;;9.11;100.00;102010.66;4976893;28;20094;-91
2024/01/26 04:13:20;;;;;;;6.53;3.73;;;;;;;9.00;100.00;102001.91;4976582;28;20086;-91
2024/01/26 04:15:46;;;;;;;4.78;3.40;;;;;;;9.07;100.00;101988.16;4976480;28;20042;-91
2024/01/26 04:18:25;;;;;;;5.78;3.47;;;;;;;9.06;100.00;101981.25;4976619;28;20027;-91
2024/01/26 04:21:11;;;;;;;6.97;4.05;;;;;;;9.15;100.00;101962.34;4976847;28;20027;-91
2024/01/26 04:23:37;;;;;;;10.57;4.80;;;;;;;9.21;100.00;101966.69;4976245;28;20478;-90
2024/01/26 04:26:15;;;;;;;9.50;5.03;;;;;;;9.12;100.00;101952.78;4976562;28;20034;-92
2024/01/26 04:28:40;;;;;;;8.88;4.68;;;;;;;9.11;100.00;101940.72;4973382;28;20066;-91
2024/01/26 04:31:26;;;;;;;8.63;4.90;;;;;;;9.21;100.00;101951.16;4975885;28;20058;-91
2024/01/26 04:34:03;;;;;;;9.57;4.82;;;;;;;9.04;100.00;101930.28;4976612;28;20113;-91
2024/01/26 04:36:28;;;;;;;8.60;4.78;;;;;;;9.08;100.00;101937.22;4975924;28;20085;-91
2024/01/26 04:39:06;;;;;;;9.53;5.10;;;;;;;9.09;100.00;101931.19;4976162;28;20022;-91
2024/01/26 04:41:53;;;;;;;9.45;5.13;;;;;;;9.06;100.00;101932.03;4976087;28;20026;-92
2024/01/26 04:44:18;;;;;;;8.98;5.00;;;;;;;9.18;100.00;101938.16;4976101;28;20037;-91
2024/01/26 04:47:04;;;;;;;8.07;4.93;;;;;;;9.16;100.00;101930.41;4975701;28;20027;-91
2024/01/26 04:49:43;;;;;;;8.97;4.93;;;;;;;9.05;100.00;101922.53;4976376;28;20027;-91
2024/01/26 04:52:30;;;;;;;7.70;4.70;;;;;;;9.04;100.00;101933.75;4975916;28;20463;-90
2024/01/26 04:55:14;;;;;;;;;;;;;;;9.14;100.00;101949.34;4976233;28;20386;-90
2024/01/26 04:58:01;;;;;;;10.52;5.20;;;;;;;9.10;100.00;101945.88;4975497;28;19929;-89
2024/01/26 05:00:41;;;;;;;8.50;4.70;;;;;;;9.01;100.00;101914.72;4975768;28;20357;-91
2024/01/26 05:03:06;;;;;;;7.95;4.55;;;;;;;9.11;100.00;101945.91;4996114;28;20025;-90
2024/01/26 05:05:52;;;;;;;6.27;4.40;;;;;;;9.14;100.00;101951.94;4995850;28;20475;-91
2024/01/26 05:08:30;;;;;;;8.70;4.70;;;;;;;9.09;100.00;101937.25;4995570;28;20017;-91
2024/01/26 05:10:55;;;;;;;7.60;4.47;;;;;;;9.14;100.00;101931.22;4994941;28;20023;-91
2024/01/26 05:13:36;;;;;;;8.83;4.90;;;;;;;9.05;100.00;101919.94;4994133;28;20517;-91
2024/01/26 05:16:05;;;;;;;10.15;5.40;;;;;;;9.08;100.00;101919.97;4995529;28;20470;-91
2024/01/26 05:18:30;;;;;;;8.48;5.35;;;;;;;9.10;100.00;101917.38;4995437;28;20462;-91
2024/01/26 05:21:05;;;;;;;7.67;4.67;;;;;;;9.11;100.00;101908.75;4995217;28;20068;-91
2024/01/26 05:23:48;;;;;;;7.80;4.78;;;;;;;9.09;100.00;101902.69;4995563;28;20026;-92
2024/01/26 05:26:19;;;;;;;8.45;4.90;;;;;;;9.09;100.00;101898.41;4994808;28;20069;-92
2024/01/26 05:28:45;;;;;;;9.50;5.15;;;;;;;9.12;100.00;101884.59;4994991;28;20046;-91
2024/01/26 05:31:19;;;;;;;9.37;5.40;;;;;;;9.11;100.00;101894.09;4976931;28;20053;-90
2024/01/26 05:33:45;;;;;;;9.88;5.43;;;;;;;9.15;100.00;101889.81;4974284;28;20031;-89
2024/01/26 05:36:16;;;;;;;10.13;5.13;;;;;;;9.06;100.00;101880.25;4974084;28;20040;-89
2024/01/26 05:38:41;;;;;;;8.55;5.10;;;;;;;9.09;100.00;101877.69;4974626;28;20031;-89
2024/01/26 05:41:13;;;;;;;9.03;5.27;;;;;;;9.01;100.00;101866.38;4974063;28;20030;-89
2024/01/26 05:43:39;;;;;;;10.55;5.40;;;;;;;9.11;100.00;101875.97;4973754;28;20078;-88
2024/01/26 05:46:10;;;;;;;9.65;5.43;;;;;;;9.02;100.00;101846.53;4973788;28;20034;-87
2024/01/26 05:48:36;;;;;;;8.63;5.03;;;;;;;8.99;100.00;101862.94;4973575;28;20090;-88
2024/01/26 05:51:09;;;;;;;9.43;5.30;;;;;;;9.01;100.00;101861.19;4973839;28;20448;-89
2024/01/26 05:53:55;;;;;;;9.13;4.72;;;;;;;9.03;100.00;101869.84;4973434;28;20037;-89
2024/01/26 05:56:38;;;;;;;;;;;;;;;9.02;100.00;101869.84;4974542;28;20030;-89
2024/01/26 05:59:27;;;;;;;10.88;5.53;;;;;;;8.88;100.00;101841.28;4958382;28;19957;-89
2024/01/26 06:01:58;;;;;;;8.43;4.80;;;;;;;8.92;100.00;101851.66;4954164;29;20403;-88
2024/01/26 06:04:23;;;;;;;9.15;5.05;;;;;;;8.95;100.00;101861.16;4954809;29;20042;-89
2024/01/26 06:06:54;;;;;;;8.80;5.23;;;;;;;8.92;100.00;101850.78;4954588;29;20027;-89
2024/01/26 06:09:20;;;;;;;10.98;5.30;;;;;;;8.86;100.00;101835.22;4954972;29;20065;-89
2024/01/26 06:11:54;;;;;;;9.90;5.00;;;;;;;8.84;100.00;101845.53;4954949;29;20043;-89
2024/01/26 06:14:19;;;;;;;9.50;5.13;;;;;;;8.93;100.00;101842.16;4954705;29;20486;-89
2024/01/26 06:16:49;;;;;;;8.80;5.33;;;;;;;8.81;100.00;101838.63;4954597;29;20031;-89
2024/01/26 06:19:23;;;;;;;9.00;5.00;;;;;;;8.89;100.00;101843.88;4954971;29;20039;-89
2024/01/26 06:21:49;;;;;;;8.27;5.10;;;;;;;8.86;100.00;101836.06;4954804;29;20067;-90
2024/01/26 06:24:34;;;;;;;8.00;4.70;;;;;;;8.88;100.00;101842.13;4954543;29;20047;-90
2024/01/26 06:26:59;;;;;;;9.37;4.97;;;;;;;8.88;100.00;101829.19;4955415;29;20030;-90
2024/01/26 06:29:40;;;;;;;9.30;5.13;;;;;;;8.80;100.00;101817.91;4954303;28;20036;-89
2024/01/26 06:32:06;;;;;;;8.23;5.38;;;;;;;8.83;100.00;101825.72;4954051;29;20038;-89
2024/01/26 06:34:49;;;;;;;8.20;4.97;;;;;;;8.85;100.00;101830.88;4954107;29;20027;-89
2024/01/26 06:37:33;;;;;;;9.00;4.85;;;;;;;8.87;100.00;101829.19;4954131;29;20108;-90
2024/01/26 06:40:17;;;;;;;10.80;5.50;;;;;;;8.90;100.00;101836.94;4954640;29;20055;-89
2024/01/26 06:43:07;;;;;;;9.48;5.40;;;;;;;8.90;100.00;101844.72;4954181;28;20055;-89
2024/01/26 06:45:43;;;;;;;9.23;5.05;;;;;;;8.78;100.00;101824.78;4954940;29;20078;-89
2024/01/26 06:48:34;;;;;;;9.20;5.30;;;;;;;8.95;100.00;101836.13;4954401;29;20029;-89
2024/01/26 06:51:11;;;;;;;10.10;5.43;;;;;;;8.83;100.00;101824.81;4954525;29;20023;-90
2024/01/26 06:53:36;;;;;;;10.52;5.13;;;;;;;8.84;100.00;101818.78;4954769;29;20475;-89
2024/01/26 06:56:20;;;;;;;11.37;5.20;;;;;;;8.81;100.00;101797.19;4961459;28;20065;-89
2024/01/26 06:59:00;;;;;;;7.78;4.85;;;;;;;8.91;100.00;101817.97;4972128;28;20058;-89
2024/01/26 07:01:25;;;;;;;9.60;5.30;;;;;;;8.98;100.00;101826.66;4973450;28;20494;-85
2024/01/26 07:06:50;;;;;;;7.78;4.60;;;;;;;8.95;100.00;101809.38;4977944;28;20485;-90
2024/01/26 07:09:16;;;;;;;7.28;4.38;;;;;;;8.92;100.00;101817.13;4976874;28;20097;-89
2024/01/26 07:11:47;;;;;;;7.27;4.53;;;;;;;8.94;100.00;101812.81;4977655;28;20019;-90
2024/01/26 07:14:22;;;;;;;8.30;4.85;;;;;;;9.01;100.00;101799.06;4977603;28;20065;-90
2024/01/26 07:16:59;;;;;;;7.78;4.32;;;;;;;8.93;100.00;101790.38;4977585;28;20029;-89
2024/01/26 07:19:25;;;;;;;6.95;4.50;;;;;;;8.97;100.00;101792.16;4977053;28;20125;-90
2024/01/26 07:22:02;;;;;;;7.43;4.53;;;;;;;9.00;100.00;101792.16;4977578;28;20054;-90
2024/01/26 07:24:36;;;;;;;7.20;4.57;;;;;;;9.05;100.00;101794.78;4978441;28;20065;-92
2024/01/26 07:27:17;;;;;;;7.22;4.78;;;;;;;8.99;100.00;101781.78;4976173;28;20054;-91
2024/01/26 07:29:47;;;;;;;8.35;4.70;;;;;;;9.03;100.00;101792.16;4977843;28;20027;-91
2024/01/26 07:32:18;;;;;;;8.30;4.78;;;;;;;9.02;100.00;101780.06;4977398;28;20018;-91
2024/01/26 07:34:50;;;;;;;8.07;4.55;;;;;;;9.06;100.00;101791.34;4977395;28;20039;-91
2024/01/26 07:37:25;;;;;;;8.75;4.95;;;;;;;9.05;100.00;101782.69;4977496;28;20027;-91
2024/01/26 07:40:09;;;;;;;7.97;4.97;;;;;;;9.23;100.00;101762.94;4977790;28;20089;-92
2024/01/26 07:42:52;;;;;;;7.57;4.80;;;;;;;9.12;100.00;101786.19;4964289;28;20122;-91
2024/01/26 07:45:34;;;;;;;8.85;5.20;;;;;;;9.18;100.00;101773.25;4957868;29;20388;-92
2024/01/26 07:48:12;;;;;;;8.23;4.78;;;;;;;9.19;100.00;101787.94;4959020;29;20122;-92
2024/01/26 07:50:43;;;;;;;9.98;5.43;;;;;;;9.23;100.00;101799.22;4957080;29;20023;-87
2024/01/26 07:53:14;;;;;;;9.23;5.22;;;;;;;9.31;100.00;101822.53;4957371;29;20035;-86
2024/01/26 07:55:40;;;;;;;9.57;5.50;;;;;;;9.22;100.00;101816.47;4976737;28;20031;-90
2024/01/26 07:58:23;;;;;;;9.93;5.30;;;;;;;9.24;100.00;101817.34;4978016;28;20053;-90
2024/01/26 08:00:49;;;;;;;8.90;5.28;;;;;;;9.39;100.00;101845.06;4978358;28;20034;-90
2024/01/26 08:03:14;;;;;;;9.57;5.30;;;;;;;9.43;100.00;101849.41;5000979;23;20142;-90
2024/01/26 08:05:39;;;;;;;8.23;5.13;;;;;;;9.45;100.00;101848.56;4941196;29;20042;-90
2024/01/26 08:08:05;;;;;;;8.03;5.20;;;;;;;9.47;100.00;101852.00;4934596;29;20027;-90
2024/01/26 08:10:30;;;;;;;8.77;5.40;;;;;;;9.49;100.00;101851.16;4930288;29;20086;-86
2024/01/26 08:12:55;;;;;;;7.53;4.77;;;;;;;9.49;100.00;101847.69;4959004;29;20031;-86
2024/01/26 08:15:21;;;;;;;8.60;4.93;;;;;;;9.52;100.00;101847.72;4952442;28;20023;-89
2024/01/26 08:17:47;;;;;;;10.40;5.40;;;;;;;9.54;100.00;101857.22;4961691;29;20038;-85
2024/01/26 08:20:12;;;;;;;8.82;4.78;;;;;;;9.56;100.00;101857.25;4964775;29;20035;-85
2024/01/26 08:22:41;;;;;;;9.60;5.60;;;;;;;9.57;100.00;101862.44;4971584;29;20034;-88
2024/01/26 08:25:07;;;;;;;9.52;5.03;;;;;;;9.58;100.00;101840.84;4964054;29;20049;-87
2024/01/26 08:27:33;;;;;;;;;;;;;;;9.61;100.00;101850.34;4955737;29;20061;-87
2024/01/26 08:29:58;;;;;;;7.50;4.90;;;;;;;9.63;100.00;101848.63;4955280;28;19950;-88
2024/01/26 08:32:23;;;;;;;9.13;4.90;;;;;;;9.65;100.00;101856.41;4955260;29;20055;-87
2024/01/26 08:34:49;;;;;;;7.67;4.70;;;;;;;9.58;100.00;101839.97;4956101;29;20031;-88
2024/01/26 08:37:40;;;;;;;8.67;4.80;;;;;;;9.64;100.00;101849.50;4954602;28;20391;-85
2024/01/26 08:40:06;;;;;;;8.63;5.40;;;;;;;9.57;100.00;101851.19;4857598;29;20080;-86
2024/01/26 08:42:50;;;;;;;8.40;4.97;;;;;;;9.64;100.00;101852.97;4858855;29;20045;-86
2024/01/26 08:45:39;;;;;;;7.65;4.72;;;;;;;9.73;100.00;101860.78;4858388;29;20029;-85
2024/01/26 08:48:05;;;;;;;7.97;4.70;;;;;;;9.62;100.00;101826.16;4863160;29;20033;-87
2024/01/26 08:50:45;;;;;;;7.27;4.80;;;;;;;9.64;100.00;101842.59;4954551;29;20035;-87
2024/01/26 08:53:28;;;;;;;8.93;5.13;;;;;;;9.77;100.00;101843.50;4938048;29;20041;-88
2024/01/26 08:56:18;;;;;;;8.35;4.63;;;;;;;9.83;100.00;101860.81;4934343;29;20412;-87
2024/01/26 08:59:12;;;;;;;8.13;4.70;;;;;;;9.85;100.00;101866.88;4933631;29;20092;-88
2024/01/26 09:02:02;;;;;;;7.30;4.60;;;;;;;9.87;100.00;101863.44;4930116;29;20489;-86
2024/01/26 09:05:03;;;;;;;8.23;4.97;;;;;;;9.88;100.00;101882.47;4934598;29;20055;-89
2024/01/26 09:07:47;;;;;;;8.18;5.43;;;;;;;9.87;100.00;101875.53;4936025;29;20051;-87
2024/01/26 09:10:35;;;;;;;7.45;4.95;;;;;;;9.73;100.00;101853.00;4935401;29;20035;-88
2024/01/26 09:13:14;;;;;;;10.15;5.82;;;;;;;9.78;100.00;101865.97;4935398;29;20155;-88
2024/01/26 09:15:52;;;;;;;11.23;6.10;;;;;;;9.82;100.00;101897.97;4935389;29;20039;-87
2024/01/26 09:18:33;;;;;;;11.70;6.28;;;;;;;9.75;100.00;101884.09;4934827;29;20027;-88
2024/01/26 09:20:59;;;;;;;12.30;6.43;;;;;;;9.75;100.00;101907.44;4935948;29;20030;-88
2024/01/26 09:23:46;;;;;;;10.57;6.00;;;;;;;9.85;100.00;101942.06;4952210;29;20480;-89
2024/01/26 09:26:39;;;;;;;8.68;5.40;;;;;;;9.80;100.00;101955.00;4954322;29;20042;-89
2024/01/26 09:29:32;;;;;;;9.73;4.90;;;;;;;9.76;100.00;101952.41;4921501;29;20035;-89
2024/01/26 09:32:12;;;;;;;8.90;3.50;;;;;;;9.66;100.00;101939.38;4940032;29;20126;-89
2024/01/26 09:38:23;;;;;;;5.73;2.80;;;;;;;9.51;100.00;101952.22;4927400;23;20498;-88
2024/01/26 09:41:00;;;;;;;9.00;2.92;;;;;;;9.57;100.00;101953.16;4973407;28;20432;-90
2024/01/26 09:43:47;;;;;;;5.57;2.90;;;;;;;9.56;100.00;101958.34;4974039;28;20022;-89
2024/01/26 09:47:11;;;;;;;4.57;2.47;;;;;;;9.52;100.00;101961.75;4976526;28;20099;-85
2024/01/26 09:49:37;;;;;;;6.28;2.60;;;;;;;9.54;100.00;102009.28;4969978;28;20035;-86
2024/01/26 09:52:03;;;;;;;6.95;2.40;;;;;;;9.46;100.00;102034.28;4973200;28;20023;-88
2024/01/26 09:57:17;;;;;;;10.63;2.00;;;;;;;9.17;100.00;102068.53;4973673;28;20473;-89
2024/01/26 09:59:58;;;;;;;5.18;1.80;;;;;;;9.00;100.00;102073.53;4973316;28;20019;-89
2024/01/26 10:05:10;;;;;;;5.82;1.80;;;;;;;8.93;100.00;102098.47;4943008;23;20106;-89
2024/01/26 10:07:36;;;;;;;7.00;1.50;;;;;;;8.95;100.00;102114.91;4934726;29;20388;-89
2024/01/26 10:10:01;;;;;;;5.23;1.50;;;;;;;8.92;100.00;102114.88;4935392;29;20091;-89
2024/01/26 10:15:14;;;;;;;4.55;1.50;;;;;;;8.79;100.00;102121.63;4934566;29;20130;-88
2024/01/26 10:17:55;;;;;;;6.38;1.38;;;;;;;8.77;100.00;102126.78;4934908;29;20024;-89
2024/01/26 10:20:21;;;;;;;7.22;1.70;;;;;;;8.78;100.00;102145.75;4943607;29;20019;-89
2024/01/26 10:22:46;;;;;;;5.83;1.77;;;;;;;8.76;100.00;102148.34;4993361;23;20063;-89
2024/01/26 10:25:13;;;;;;;5.17;1.83;;;;;;;8.72;100.00;102148.28;4935370;29;20039;-89
2024/01/26 10:27:41;;;;;;;10.55;2.00;;;;;;;8.71;100.00;102160.34;4946039;29;20400;-91
2024/01/26 10:30:10;;;;;;;5.75;2.00;;;;;;;8.77;100.00;102169.91;4956174;28;20023;-85
2024/01/26 10:32:35;;;;;;;7.88;2.05;;;;;;;8.72;100.00;102162.09;4953584;29;20106;-85
2024/01/26 10:35:02;;;;;;;9.50;2.13;;;;;;;8.75;100.00;102172.50;4953908;29;20456;-85
2024/01/26 10:37:35;;;;;;;7.63;1.90;;;;;;;8.74;100.00;102180.22;4953007;29;20029;-86
2024/01/26 10:40:06;;;;;;;8.73;1.98;;;;;;;8.72;100.00;102187.09;4950800;28;20027;-84
2024/01/26 10:42:32;;;;;;;9.15;1.90;;;;;;;8.71;100.00;102188.81;4948015;29;20031;-89
2024/01/26 10:45:02;;;;;;;9.77;2.33;;;;;;;8.70;100.00;102200.00;4939580;29;20035;-87
2024/01/26 10:47:27;;;;;;;10.50;2.38;;;;;;;8.63;100.00;102201.63;4938416;29;20032;-87
2024/01/26 10:50:06;;;;;;;8.67;1.80;;;;;;;8.51;100.00;102198.88;4938149;29;20026;-87
2024/01/26 10:52:54;;;;;;;11.25;2.30;;;;;;;8.60;100.00;102231.78;4938413;29;20531;-90
2024/01/26 10:55:42;;;;;;;8.30;2.20;;;;;;;8.63;100.00;102224.06;4938381;29;20032;-89
2024/01/26 10:58:07;;;;;;;8.02;2.25;;;;;;;8.72;100.00;102225.94;4938449;29;20070;-88
2024/01/26 11:00:34;;;;;;;9.67;2.03;;;;;;;8.89;100.00;102237.38;4938737;29;20051;-89
2024/01/26 11:03:20;;;;;;;9.60;1.95;;;;;;;9.12;100.00;102237.69;4938817;29;20027;-89
2024/01/26 11:06:10;;;;;;;11.93;2.28;;;;;;;9.20;100.00;102273.19;4939040;29;20036;-90
2024/01/26 11:09:01;;;;;;;9.52;2.50;;;;;;;9.11;100.00;102273.94;4939245;29;20102;-91
2024/01/26 11:11:52;;;;;;;10.20;2.28;;;;;;;9.05;100.00;102282.50;4938705;29;20020;-90
2024/01/26 11:14:47;;;;;;;11.48;2.00;;;;;;;8.78;100.00;102267.44;4937339;29;20472;-87
2024/01/26 11:17:43;;;;;;;8.40;2.10;;;;;;;8.70;100.00;102279.38;4938015;29;20032;-91
2024/01/26 11:20:30;;;;;;;10.00;2.00;;;;;;;8.90;100.00;102315.91;4957863;23;20061;-87
2024/01/26 11:23:06;;;;;;;6.25;1.52;;;;;;;8.95;100.00;102286.66;4957243;29;20760;-90
2024/01/26 11:26:01;;;;;;;6.93;1.80;;;;;;;9.16;94.84;102333.56;4958981;29;20023;-92
2024/01/26 11:28:54;;;;;;;6.40;1.70;;;;;;;9.20;94.42;102346.59;4957170;29;20031;-93
2024/01/26 11:31:35;;;;;;;5.75;1.50;;;;;;;8.96;90.01;102342.78;4958831;29;20070;-93
2024/01/26 11:34:04;;;;;;;6.53;1.90;;;;;;;8.87;88.49;102349.56;4952597;29;20040;-94
2024/01/26 11:36:45;;;;;;;8.90;1.70;;;;;;;8.75;87.07;102343.34;4956967;28;20034;-89
2024/01/26 11:39:13;;;;;;;9.68;1.50;;;;;;;8.76;87.88;102355.44;4955880;29;20027;-86
2024/01/26 11:41:57;;;;;;;6.05;1.40;;;;;;;8.80;90.16;102364.97;4956919;29;20092;-89
2024/01/26 11:44:41;;;;;;;5.72;1.50;;;;;;;8.84;85.98;102394.38;4956226;29;20031;-88
2024/01/26 11:47:25;;;;;;;5.30;1.58;;;;;;;8.85;85.02;102382.31;4955372;28;20113;-89
2024/01/26 11:49:50;;;;;;;6.85;1.70;;;;;;;8.90;84.49;102394.47;4956912;28;20023;-89
2024/01/26 11:52:21;;;;;;;7.57;1.70;;;;;;;8.95;85.30;102389.38;4956439;28;20027;-88
2024/01/26 11:54:47;;;;;;;8.10;1.70;;;;;;;8.97;81.87;102416.19;4957142;28;20035;-87
2024/01/26 11:57:13;;;;;;;9.77;2.00;;;;;;;8.97;83.37;102418.75;4956397;29;20025;-88
2024/01/26 11:59:39;;;;;;;5.80;1.60;;;;;;;9.01;79.90;102433.50;4956367;29;20027;-87
2024/01/26 12:02:04;;;;;;;4.65;1.50;;;;;;;8.96;81.54;102432.56;4957103;29;20094;-89
2024/01/26 12:04:34;;;;;;;5.53;1.30;;;;;;;8.92;82.54;102426.47;4956474;29;20031;-87
2024/01/26 12:07:15;;;;;;;3.80;1.48;;;;;;;8.89;85.29;102429.00;4957505;29;20097;-87
2024/01/26 12:09:52;;;;;;;8.40;1.88;;;;;;;8.87;82.32;102443.63;4957672;29;20038;-85
2024/01/26 12:12:48;;;;;;;7.18;1.60;;;;;;;8.77;84.54;102431.38;4956899;29;20031;-90
2024/01/26 12:15:29;;;;;;;8.40;1.80;;;;;;;8.78;85.09;102440.88;4964976;23;20050;-91
2024/01/26 12:18:00;;;;;;;6.00;1.75;;;;;;;8.90;84.75;102468.69;4977197;28;20106;-92
2024/01/26 12:20:43;;;;;;;5.38;1.52;;;;;;;8.89;84.00;102462.66;4978088;28;20031;-90
2024/01/26 12:23:26;;;;;;;5.05;1.55;;;;;;;8.84;84.37;102468.59;4976525;28;20479;-84
2024/01/26 12:26:11;;;;;;;6.47;1.65;;;;;;;8.78;83.45;102462.44;4976759;28;20106;-85
2024/01/26 12:28:40;;;;;;;7.60;1.77;;;;;;;8.80;83.70;102485.78;4976993;28;20030;-84